Terminal Aerodrome Forecast
Issued by NWS Sterling, VA

Home | Current Version | Previous Version | Text Only | Print | Product List | Glossary On
Versions: 1 2 3 4 5 6 7 8 9 10 11 12 13 14 15 16 17 18 19 20 21 22 23 24
000
FTUS41 KLWX 311500 AAC
TAFIAD
TAF AMD
KIAD 311500Z 3115/0118 19006KT P6SM FEW060 SCT250
     FM312100 18006KT P6SM VCTS SCT060CB BKN120
     FM010300 17004KT P6SM SCT070 BKN200
     FM010700 VRB03KT 6SM BR SCT100 BKN130
     FM010900 VRB03KT 3SM BR BKN070 BKN090
     FM011500 34007KT P6SM BKN070=

USA.gov is the U.S. government's official web portal to all federal, state and local government web resources and services.